Terminal Aerodrome Forecast
Issued by NWS

Home | Current Version | Previous Version | Text Only | Print | Product List | Glossary On
Versions: 1 2 3 4 5 6 7 8 9 10 11 12 13
000
FTUS45 KTFX 231100
TAFCTB
TAF
KCTB 231124Z 2312/2412 VRB05KT P6SM BKN100
      TEMPO 2312/2315 -SHRA BKN050
     FM231600 16007KT P6SM SKC
     FM232100 17011KT P6SM VCTS SCT080CB
     FM240100 21011KT P6SM SCT080 BKN120
      TEMPO 2401/2404 -TSRA BKN080CB
     FM240400 28008KT P6SM SCT120 BKN250
     FM240900 26015KT P6SM SKC=

USA.gov is the U.S. government's official web portal to all federal, state and local government web resources and services.